sensor_id;sensor_type;location;lat;lon;timestamp;P1;durP1;ratioP1;P2;durP2;ratioP2
25231;SDS011;13176;51.140;6.290;2023-08-30T00:00:48;817.30;;;751.08;;
25231;SDS011;13176;51.140;6.290;2023-08-30T00:03:15;874.22;;;803.00;;
25231;SDS011;13176;51.140;6.290;2023-08-30T00:05:41;840.55;;;774.45;;
25231;SDS011;13176;51.140;6.290;2023-08-30T00:08:08;819.90;;;754.80;;
25231;SDS011;13176;51.140;6.290;2023-08-30T00:10:35;838.78;;;771.88;;
25231;SDS011;13176;51.140;6.290;2023-08-30T00:13:04;789.28;;;729.20;;
25231;SDS011;13176;51.140;6.290;2023-08-30T00:15:30;793.20;;;733.17;;
25231;SDS011;13176;51.140;6.290;2023-08-30T00:17:56;763.60;;;706.47;;
25231;SDS011;13176;51.140;6.290;2023-08-30T00:20:23;755.58;;;698.97;;
25231;SDS011;13176;51.140;6.290;2023-08-30T00:22:50;793.30;;;734.08;;
25231;SDS011;13176;51.140;6.290;2023-08-30T00:25:16;745.33;;;691.40;;
25231;SDS011;13176;51.140;6.290;2023-08-30T00:27:43;723.47;;;668.78;;
25231;SDS011;13176;51.140;6.290;2023-08-30T00:30:09;708.90;;;656.97;;
25231;SDS011;13176;51.140;6.290;2023-08-30T00:32:37;758.78;;;702.53;;
25231;SDS011;13176;51.140;6.290;2023-08-30T00:35:03;766.10;;;708.20;;
25231;SDS011;13176;51.140;6.290;2023-08-30T00:37:30;761.33;;;705.10;;
25231;SDS011;13176;51.140;6.290;2023-08-30T00:39:57;755.88;;;700.58;;
25231;SDS011;13176;51.140;6.290;2023-08-30T00:42:25;756.85;;;700.20;;
25231;SDS011;13176;51.140;6.290;2023-08-30T00:44:53;742.35;;;686.92;;
25231;SDS011;13176;51.140;6.290;2023-08-30T00:47:20;755.60;;;699.50;;
25231;SDS011;13176;51.140;6.290;2023-08-30T00:49:47;804.63;;;742.92;;
25231;SDS011;13176;51.140;6.290;2023-08-30T00:52:14;792.70;;;732.45;;
25231;SDS011;13176;51.140;6.290;2023-08-30T00:54:41;793.13;;;735.22;;
25231;SDS011;13176;51.140;6.290;2023-08-30T00:57:08;732.15;;;678.58;;
25231;SDS011;13176;51.140;6.290;2023-08-30T00:59:35;664.30;;;618.70;;
25231;SDS011;13176;51.140;6.290;2023-08-30T01:02:03;663.58;;;617.92;;
25231;SDS011;13176;51.140;6.290;2023-08-30T01:04:30;672.03;;;625.05;;
25231;SDS011;13176;51.140;6.290;2023-08-30T01:06:57;653.13;;;608.08;;
25231;SDS011;13176;51.140;6.290;2023-08-30T01:09:24;707.55;;;655.97;;
25231;SDS011;13176;51.140;6.290;2023-08-30T01:12:02;761.00;;;705.13;;
25231;SDS011;13176;51.140;6.290;2023-08-30T01:17:05;756.90;;;702.50;;
25231;SDS011;13176;51.140;6.290;2023-08-30T01:22:17;694.67;;;645.20;;
25231;SDS011;13176;51.140;6.290;2023-08-30T01:25:40;755.35;;;701.42;;
25231;SDS011;13176;51.140;6.290;2023-08-30T01:27:47;705.08;;;655.30;;
25231;SDS011;13176;51.140;6.290;2023-08-30T01:30:17;607.33;;;566.22;;
25231;SDS011;13176;51.140;6.290;2023-08-30T01:32:46;670.92;;;624.10;;
25231;SDS011;13176;51.140;6.290;2023-08-30T01:35:13;718.25;;;666.28;;
25231;SDS011;13176;51.140;6.290;2023-08-30T01:37:46;730.17;;;676.03;;
25231;SDS011;13176;51.140;6.290;2023-08-30T01:40:14;671.65;;;624.85;;
25231;SDS011;13176;51.140;6.290;2023-08-30T01:42:43;705.90;;;654.58;;
25231;SDS011;13176;51.140;6.290;2023-08-30T01:45:11;705.78;;;654.08;;
25231;SDS011;13176;51.140;6.290;2023-08-30T01:47:41;728.00;;;674.95;;
25231;SDS011;13176;51.140;6.290;2023-08-30T01:50:10;698.38;;;648.72;;
25231;SDS011;13176;51.140;6.290;2023-08-30T01:52:38;748.25;;;693.42;;
25231;SDS011;13176;51.140;6.290;2023-08-30T01:55:06;792.58;;;732.65;;
25231;SDS011;13176;51.140;6.290;2023-08-30T01:57:34;820.75;;;756.45;;
25231;SDS011;13176;51.140;6.290;2023-08-30T02:00:01;828.47;;;764.35;;
25231;SDS011;13176;51.140;6.290;2023-08-30T02:02:29;786.97;;;728.10;;
25231;SDS011;13176;51.140;6.290;2023-08-30T02:04:56;754.55;;;700.15;;
25231;SDS011;13176;51.140;6.290;2023-08-30T02:08:05;735.90;;;684.10;;
25231;SDS011;13176;51.140;6.290;2023-08-30T02:10:34;697.65;;;649.45;;
25231;SDS011;13176;51.140;6.290;2023-08-30T02:13:02;708.40;;;658.78;;
25231;SDS011;13176;51.140;6.290;2023-08-30T02:15:30;730.83;;;678.20;;
25231;SDS011;13176;51.140;6.290;2023-08-30T02:17:59;703.17;;;654.55;;
25231;SDS011;13176;51.140;6.290;2023-08-30T02:20:27;682.78;;;635.30;;
25231;SDS011;13176;51.140;6.290;2023-08-30T02:22:54;688.17;;;640.70;;
25231;SDS011;13176;51.140;6.290;2023-08-30T02:25:24;677.35;;;630.83;;
25231;SDS011;13176;51.140;6.290;2023-08-30T02:27:51;667.08;;;621.88;;
25231;SDS011;13176;51.140;6.290;2023-08-30T02:30:17;719.67;;;668.20;;
25231;SDS011;13176;51.140;6.290;2023-08-30T02:32:44;712.20;;;660.58;;
25231;SDS011;13176;51.140;6.290;2023-08-30T02:35:11;692.83;;;643.25;;
25231;SDS011;13176;51.140;6.290;2023-08-30T02:37:37;746.42;;;691.17;;
25231;SDS011;13176;51.140;6.290;2023-08-30T02:40:06;657.42;;;612.90;;
25231;SDS011;13176;51.140;6.290;2023-08-30T02:42:33;653.53;;;607.35;;
25231;SDS011;13176;51.140;6.290;2023-08-30T02:44:59;630.78;;;587.65;;
25231;SDS011;13176;51.140;6.290;2023-08-30T02:47:26;688.33;;;639.28;;
25231;SDS011;13176;51.140;6.290;2023-08-30T02:49:52;678.38;;;631.53;;
25231;SDS011;13176;51.140;6.290;2023-08-30T02:52:18;683.65;;;635.63;;
25231;SDS011;13176;51.140;6.290;2023-08-30T02:54:45;708.63;;;658.08;;
25231;SDS011;13176;51.140;6.290;2023-08-30T02:57:11;669.97;;;623.72;;
25231;SDS011;13176;51.140;6.290;2023-08-30T02:59:38;699.22;;;649.67;;
25231;SDS011;13176;51.140;6.290;2023-08-30T03:02:04;711.20;;;660.55;;
25231;SDS011;13176;51.140;6.290;2023-08-30T03:04:31;712.45;;;662.08;;
25231;SDS011;13176;51.140;6.290;2023-08-30T03:06:57;719.47;;;668.08;;
25231;SDS011;13176;51.140;6.290;2023-08-30T03:09:24;726.83;;;674.92;;
25231;SDS011;13176;51.140;6.290;2023-08-30T03:11:50;725.95;;;675.70;;
25231;SDS011;13176;51.140;6.290;2023-08-30T03:14:17;699.40;;;650.63;;
25231;SDS011;13176;51.140;6.290;2023-08-30T03:16:43;716.65;;;665.85;;
25231;SDS011;13176;51.140;6.290;2023-08-30T03:19:11;726.05;;;674.50;;
25231;SDS011;13176;51.140;6.290;2023-08-30T03:21:37;719.03;;;667.63;;
25231;SDS011;13176;51.140;6.290;2023-08-30T03:24:04;681.05;;;633.65;;
25231;SDS011;13176;51.140;6.290;2023-08-30T03:26:31;661.63;;;615.40;;
25231;SDS011;13176;51.140;6.290;2023-08-30T03:28:57;735.47;;;683.00;;
25231;SDS011;13176;51.140;6.290;2023-08-30T03:31:23;774.47;;;717.03;;
25231;SDS011;13176;51.140;6.290;2023-08-30T03:33:50;776.25;;;720.20;;
25231;SDS011;13176;51.140;6.290;2023-08-30T03:36:17;798.65;;;740.35;;
25231;SDS011;13176;51.140;6.290;2023-08-30T03:38:44;791.10;;;733.08;;
25231;SDS011;13176;51.140;6.290;2023-08-30T03:41:11;802.17;;;743.55;;
25231;SDS011;13176;51.140;6.290;2023-08-30T03:43:38;805.72;;;746.08;;
25231;SDS011;13176;51.140;6.290;2023-08-30T03:46:04;817.25;;;755.47;;
25231;SDS011;13176;51.140;6.290;2023-08-30T03:48:31;822.40;;;760.60;;
25231;SDS011;13176;51.140;6.290;2023-08-30T03:50:58;775.83;;;719.00;;
25231;SDS011;13176;51.140;6.290;2023-08-30T03:53:25;762.53;;;707.50;;
25231;SDS011;13176;51.140;6.290;2023-08-30T03:55:51;826.00;;;762.95;;
25231;SDS011;13176;51.140;6.290;2023-08-30T03:58:18;813.42;;;751.80;;
25231;SDS011;13176;51.140;6.290;2023-08-30T04:00:45;794.67;;;736.88;;
25231;SDS011;13176;51.140;6.290;2023-08-30T04:03:12;791.55;;;734.13;;
25231;SDS011;13176;51.140;6.290;2023-08-30T04:05:40;770.42;;;714.67;;
25231;SDS011;13176;51.140;6.290;2023-08-30T04:08:06;766.78;;;710.85;;
25231;SDS011;13176;51.140;6.290;2023-08-30T04:10:34;770.40;;;714.65;;
25231;SDS011;13176;51.140;6.290;2023-08-30T04:13:07;756.97;;;701.38;;
25231;SDS011;13176;51.140;6.290;2023-08-30T04:15:35;782.40;;;725.20;;
25231;SDS011;13176;51.140;6.290;2023-08-30T04:18:05;726.83;;;675.00;;
25231;SDS011;13176;51.140;6.290;2023-08-30T04:20:33;747.72;;;694.10;;
25231;SDS011;13176;51.140;6.290;2023-08-30T04:23:00;741.05;;;688.97;;
25231;SDS011;13176;51.140;6.290;2023-08-30T04:25:28;767.75;;;710.00;;
25231;SDS011;13176;51.140;6.290;2023-08-30T04:27:56;768.03;;;711.55;;
25231;SDS011;13176;51.140;6.290;2023-08-30T04:30:22;791.83;;;732.60;;
25231;SDS011;13176;51.140;6.290;2023-08-30T04:32:49;766.97;;;710.65;;
25231;SDS011;13176;51.140;6.290;2023-08-30T04:35:16;834.83;;;771.45;;
25231;SDS011;13176;51.140;6.290;2023-08-30T04:37:43;790.13;;;732.83;;
25231;SDS011;13176;51.140;6.290;2023-08-30T04:40:09;777.13;;;720.67;;
25231;SDS011;13176;51.140;6.290;2023-08-30T04:42:36;848.35;;;781.67;;
25231;SDS011;13176;51.140;6.290;2023-08-30T04:45:05;848.65;;;783.92;;
25231;SDS011;13176;51.140;6.290;2023-08-30T04:47:33;794.28;;;736.03;;
25231;SDS011;13176;51.140;6.290;2023-08-30T04:49:59;761.92;;;706.75;;
25231;SDS011;13176;51.140;6.290;2023-08-30T04:52:26;790.60;;;731.13;;
25231;SDS011;13176;51.140;6.290;2023-08-30T04:54:52;846.90;;;783.20;;
25231;SDS011;13176;51.140;6.290;2023-08-30T04:57:19;800.97;;;741.90;;
25231;SDS011;13176;51.140;6.290;2023-08-30T04:59:45;773.45;;;716.67;;
25231;SDS011;13176;51.140;6.290;2023-08-30T05:02:12;802.80;;;742.30;;
25231;SDS011;13176;51.140;6.290;2023-08-30T05:04:40;825.80;;;763.17;;
25231;SDS011;13176;51.140;6.290;2023-08-30T05:07:06;792.83;;;735.28;;
25231;SDS011;13176;51.140;6.290;2023-08-30T05:09:33;796.70;;;737.00;;
25231;SDS011;13176;51.140;6.290;2023-08-30T05:12:00;802.58;;;743.08;;
25231;SDS011;13176;51.140;6.290;2023-08-30T05:14:30;750.88;;;697.30;;
25231;SDS011;13176;51.140;6.290;2023-08-30T05:16:57;756.25;;;701.10;;
25231;SDS011;13176;51.140;6.290;2023-08-30T05:19:26;762.25;;;707.15;;
25231;SDS011;13176;51.140;6.290;2023-08-30T05:21:52;724.45;;;672.83;;
25231;SDS011;13176;51.140;6.290;2023-08-30T05:24:21;714.50;;;664.15;;
25231;SDS011;13176;51.140;6.290;2023-08-30T05:26:48;719.55;;;668.50;;
25231;SDS011;13176;51.140;6.290;2023-08-30T05:29:14;687.67;;;639.33;;
25231;SDS011;13176;51.140;6.290;2023-08-30T05:31:41;690.78;;;642.72;;
25231;SDS011;13176;51.140;6.290;2023-08-30T05:34:08;650.50;;;606.35;;
25231;SDS011;13176;51.140;6.290;2023-08-30T05:36:34;606.15;;;566.50;;
25231;SDS011;13176;51.140;6.290;2023-08-30T05:39:01;609.45;;;569.25;;
25231;SDS011;13176;51.140;6.290;2023-08-30T05:41:29;633.92;;;590.90;;
25231;SDS011;13176;51.140;6.290;2023-08-30T05:43:56;659.55;;;613.28;;
25231;SDS011;13176;51.140;6.290;2023-08-30T05:46:23;600.75;;;560.47;;
25231;SDS011;13176;51.140;6.290;2023-08-30T05:48:49;632.53;;;588.80;;
25231;SDS011;13176;51.140;6.290;2023-08-30T05:51:16;675.40;;;627.72;;
25231;SDS011;13176;51.140;6.290;2023-08-30T05:53:42;648.10;;;603.50;;
25231;SDS011;13176;51.140;6.290;2023-08-30T05:56:09;595.78;;;556.28;;
25231;SDS011;13176;51.140;6.290;2023-08-30T05:58:35;606.60;;;566.65;;
25231;SDS011;13176;51.140;6.290;2023-08-30T06:01:02;627.90;;;585.42;;
25231;SDS011;13176;51.140;6.290;2023-08-30T06:03:30;593.58;;;553.95;;
25231;SDS011;13176;51.140;6.290;2023-08-30T06:05:57;603.70;;;563.33;;
25231;SDS011;13176;51.140;6.290;2023-08-30T06:08:24;624.72;;;582.63;;
25231;SDS011;13176;51.140;6.290;2023-08-30T06:10:50;666.67;;;618.60;;
25231;SDS011;13176;51.140;6.290;2023-08-30T06:13:17;712.72;;;659.35;;
25231;SDS011;13176;51.140;6.290;2023-08-30T06:15:43;738.28;;;682.38;;
25231;SDS011;13176;51.140;6.290;2023-08-30T06:18:11;727.95;;;676.08;;
25231;SDS011;13176;51.140;6.290;2023-08-30T06:20:41;695.83;;;646.83;;
25231;SDS011;13176;51.140;6.290;2023-08-30T06:23:08;598.22;;;558.92;;
25231;SDS011;13176;51.140;6.290;2023-08-30T06:25:34;640.42;;;597.03;;
25231;SDS011;13176;51.140;6.290;2023-08-30T06:28:01;662.13;;;615.50;;
25231;SDS011;13176;51.140;6.290;2023-08-30T06:30:29;643.03;;;599.28;;
25231;SDS011;13176;51.140;6.290;2023-08-30T06:32:56;658.30;;;613.63;;
25231;SDS011;13176;51.140;6.290;2023-08-30T06:35:23;628.08;;;585.70;;
25231;SDS011;13176;51.140;6.290;2023-08-30T06:37:50;670.33;;;625.00;;
25231;SDS011;13176;51.140;6.290;2023-08-30T06:40:17;676.38;;;629.92;;
25231;SDS011;13176;51.140;6.290;2023-08-30T06:42:44;676.22;;;628.90;;
25231;SDS011;13176;51.140;6.290;2023-08-30T06:45:10;762.22;;;704.78;;
25231;SDS011;13176;51.140;6.290;2023-08-30T06:47:37;721.83;;;669.40;;
25231;SDS011;13176;51.140;6.290;2023-08-30T06:50:04;764.22;;;709.00;;
25231;SDS011;13176;51.140;6.290;2023-08-30T06:52:31;653.30;;;609.33;;
25231;SDS011;13176;51.140;6.290;2023-08-30T06:54:57;632.95;;;589.80;;
25231;SDS011;13176;51.140;6.290;2023-08-30T06:57:24;638.55;;;593.03;;
25231;SDS011;13176;51.140;6.290;2023-08-30T06:59:50;725.58;;;673.22;;
25231;SDS011;13176;51.140;6.290;2023-08-30T07:02:19;662.78;;;616.50;;
25231;SDS011;13176;51.140;6.290;2023-08-30T07:04:46;681.97;;;633.35;;
25231;SDS011;13176;51.140;6.290;2023-08-30T07:07:15;682.63;;;633.97;;
25231;SDS011;13176;51.140;6.290;2023-08-30T07:09:41;609.28;;;566.83;;
25231;SDS011;13176;51.140;6.290;2023-08-30T07:12:08;674.30;;;624.65;;
25231;SDS011;13176;51.140;6.290;2023-08-30T07:14:34;781.65;;;721.00;;
25231;SDS011;13176;51.140;6.290;2023-08-30T07:17:01;634.33;;;589.78;;
25231;SDS011;13176;51.140;6.290;2023-08-30T07:19:27;550.25;;;512.72;;
25231;SDS011;13176;51.140;6.290;2023-08-30T07:21:56;540.03;;;503.65;;
25231;SDS011;13176;51.140;6.290;2023-08-30T07:24:23;639.20;;;592.65;;
25231;SDS011;13176;51.140;6.290;2023-08-30T07:26:49;605.53;;;562.40;;
25231;SDS011;13176;51.140;6.290;2023-08-30T07:29:16;608.80;;;565.60;;
25231;SDS011;13176;51.140;6.290;2023-08-30T07:31:42;577.65;;;537.83;;
25231;SDS011;13176;51.140;6.290;2023-08-30T07:34:09;558.38;;;520.15;;
25231;SDS011;13176;51.140;6.290;2023-08-30T07:36:36;609.80;;;565.17;;
25231;SDS011;13176;51.140;6.290;2023-08-30T07:39:13;561.22;;;522.53;;
25231;SDS011;13176;51.140;6.290;2023-08-30T07:41:39;514.90;;;480.17;;
25231;SDS011;13176;51.140;6.290;2023-08-30T07:44:06;446.60;;;418.65;;
25231;SDS011;13176;51.140;6.290;2023-08-30T07:46:32;355.75;;;334.42;;
25231;SDS011;13176;51.140;6.290;2023-08-30T07:48:58;419.02;;;392.95;;
25231;SDS011;13176;51.140;6.290;2023-08-30T07:51:25;328.00;;;309.05;;
25231;SDS011;13176;51.140;6.290;2023-08-30T07:53:54;274.08;;;258.48;;
25231;SDS011;13176;51.140;6.290;2023-08-30T07:56:21;373.73;;;350.85;;
25231;SDS011;13176;51.140;6.290;2023-08-30T07:58:48;279.17;;;262.75;;
25231;SDS011;13176;51.140;6.290;2023-08-30T08:01:15;383.33;;;359.23;;
25231;SDS011;13176;51.140;6.290;2023-08-30T08:03:41;603.85;;;559.88;;
25231;SDS011;13176;51.140;6.290;2023-08-30T08:06:28;522.75;;;485.92;;
25231;SDS011;13176;51.140;6.290;2023-08-30T08:08:55;673.88;;;622.83;;
25231;SDS011;13176;51.140;6.290;2023-08-30T08:11:21;875.60;;;803.78;;
25231;SDS011;13176;51.140;6.290;2023-08-30T08:13:48;830.38;;;764.85;;
25231;SDS011;13176;51.140;6.290;2023-08-30T08:16:14;803.20;;;741.08;;
25231;SDS011;13176;51.140;6.290;2023-08-30T08:18:41;856.60;;;788.25;;
25231;SDS011;13176;51.140;6.290;2023-08-30T08:21:07;762.50;;;702.28;;
25231;SDS011;13176;51.140;6.290;2023-08-30T08:23:34;757.53;;;697.75;;
25231;SDS011;13176;51.140;6.290;2023-08-30T08:26:00;785.30;;;723.30;;
25231;SDS011;13176;51.140;6.290;2023-08-30T08:28:28;786.95;;;725.03;;
25231;SDS011;13176;51.140;6.290;2023-08-30T08:30:55;622.08;;;576.97;;
25231;SDS011;13176;51.140;6.290;2023-08-30T08:33:22;669.85;;;619.97;;
25231;SDS011;13176;51.140;6.290;2023-08-30T08:35:50;292.88;;;276.25;;
25231;SDS011;13176;51.140;6.290;2023-08-30T08:38:16;435.42;;;408.02;;
25231;SDS011;13176;51.140;6.290;2023-08-30T08:40:43;561.22;;;522.25;;
25231;SDS011;13176;51.140;6.290;2023-08-30T08:43:10;569.53;;;529.90;;
25231;SDS011;13176;51.140;6.290;2023-08-30T08:45:38;425.67;;;398.85;;
25231;SDS011;13176;51.140;6.290;2023-08-30T08:48:05;613.15;;;567.22;;
25231;SDS011;13176;51.140;6.290;2023-08-30T08:50:33;645.28;;;598.10;;
25231;SDS011;13176;51.140;6.290;2023-08-30T08:53:03;581.08;;;540.30;;
25231;SDS011;13176;51.140;6.290;2023-08-30T08:55:30;530.15;;;494.23;;
25231;SDS011;13176;51.140;6.290;2023-08-30T08:57:58;610.15;;;567.03;;
25231;SDS011;13176;51.140;6.290;2023-08-30T09:00:25;572.67;;;532.03;;
25231;SDS011;13176;51.140;6.290;2023-08-30T09:02:53;644.83;;;598.28;;
25231;SDS011;13176;51.140;6.290;2023-08-30T09:05:20;675.70;;;624.45;;
25231;SDS011;13176;51.140;6.290;2023-08-30T09:07:47;722.42;;;667.53;;
25231;SDS011;13176;51.140;6.290;2023-08-30T09:10:14;676.05;;;625.83;;
25231;SDS011;13176;51.140;6.290;2023-08-30T09:12:41;671.00;;;619.95;;
25231;SDS011;13176;51.140;6.290;2023-08-30T09:15:08;723.00;;;667.90;;
25231;SDS011;13176;51.140;6.290;2023-08-30T09:17:35;681.72;;;630.30;;
25231;SDS011;13176;51.140;6.290;2023-08-30T09:20:09;811.35;;;744.35;;
25231;SDS011;13176;51.140;6.290;2023-08-30T09:22:40;824.30;;;759.90;;
25231;SDS011;13176;51.140;6.290;2023-08-30T09:25:08;807.45;;;745.70;;
25231;SDS011;13176;51.140;6.290;2023-08-30T09:27:35;856.38;;;787.90;;
25231;SDS011;13176;51.140;6.290;2023-08-30T09:30:05;825.15;;;760.45;;
25231;SDS011;13176;51.140;6.290;2023-08-30T09:32:38;810.30;;;747.38;;
25231;SDS011;13176;51.140;6.290;2023-08-30T09:37:35;393.80;;;370.70;;
25231;SDS011;13176;51.140;6.290;2023-08-30T09:40:01;634.50;;;589.90;;
25231;SDS011;13176;51.140;6.290;2023-08-30T09:42:28;724.78;;;671.33;;
25231;SDS011;13176;51.140;6.290;2023-08-30T09:44:55;577.22;;;536.42;;
25231;SDS011;13176;51.140;6.290;2023-08-30T09:47:25;444.20;;;415.38;;
25231;SDS011;13176;51.140;6.290;2023-08-30T09:49:55;610.40;;;565.80;;
25231;SDS011;13176;51.140;6.290;2023-08-30T09:52:23;796.67;;;733.88;;
25231;SDS011;13176;51.140;6.290;2023-08-30T09:54:51;913.78;;;835.67;;
25231;SDS011;13176;51.140;6.290;2023-08-30T09:57:18;981.28;;;892.92;;
25231;SDS011;13176;51.140;6.290;2023-08-30T09:59:48;1064.57;;;959.90;;
25231;SDS011;13176;51.140;6.290;2023-08-30T10:02:17;1058.07;;;957.03;;
25231;SDS011;13176;51.140;6.290;2023-08-30T10:04:46;1104.18;;;992.45;;
25231;SDS011;13176;51.140;6.290;2023-08-30T10:07:14;1121.25;;;996.78;;
25231;SDS011;13176;51.140;6.290;2023-08-30T10:09:41;1133.97;;;999.90;;
25231;SDS011;13176;51.140;6.290;2023-08-30T10:12:28;1115.45;;;989.10;;
25231;SDS011;13176;51.140;6.290;2023-08-30T10:14:55;1236.00;;;999.90;;
25231;SDS011;13176;51.140;6.290;2023-08-30T10:17:27;1146.97;;;984.88;;
25231;SDS011;13176;51.140;6.290;2023-08-30T10:19:57;1079.18;;;957.08;;
25231;SDS011;13176;51.140;6.290;2023-08-30T10:22:25;1067.13;;;950.78;;
25231;SDS011;13176;51.140;6.290;2023-08-30T10:25:02;1113.38;;;994.97;;
25231;SDS011;13176;51.140;6.290;2023-08-30T10:27:38;1092.00;;;979.20;;
25231;SDS011;13176;51.140;6.290;2023-08-30T10:30:09;1114.40;;;994.38;;
25231;SDS011;13176;51.140;6.290;2023-08-30T10:32:43;1174.55;;;999.90;;
25231;SDS011;13176;51.140;6.290;2023-08-30T10:35:14;1130.07;;;999.90;;
25231;SDS011;13176;51.140;6.290;2023-08-30T10:37:42;1202.85;;;999.90;;
25231;SDS011;13176;51.140;6.290;2023-08-30T10:40:19;1134.90;;;999.90;;
25231;SDS011;13176;51.140;6.290;2023-08-30T10:43:01;1169.10;;;999.90;;
25231;SDS011;13176;51.140;6.290;2023-08-30T10:45:30;1285.20;;;999.90;;
25231;SDS011;13176;51.140;6.290;2023-08-30T10:47:58;1132.93;;;983.80;;
25231;SDS011;13176;51.140;6.290;2023-08-30T10:50:31;1148.20;;;999.90;;
25231;SDS011;13176;51.140;6.290;2023-08-30T10:52:59;1122.18;;;993.47;;
25231;SDS011;13176;51.140;6.290;2023-08-30T10:55:26;1154.35;;;999.00;;
25231;SDS011;13176;51.140;6.290;2023-08-30T10:58:02;1095.50;;;934.80;;
25231;SDS011;13176;51.140;6.290;2023-08-30T11:00:30;1126.70;;;946.05;;
25231;SDS011;13176;51.140;6.290;2023-08-30T11:02:57;1152.18;;;945.10;;
25231;SDS011;13176;51.140;6.290;2023-08-30T11:05:25;960.08;;;844.97;;
25231;SDS011;13176;51.140;6.290;2023-08-30T11:07:52;1166.03;;;947.45;;
25231;SDS011;13176;51.140;6.290;2023-08-30T11:10:20;1109.05;;;934.63;;
25231;SDS011;13176;51.140;6.290;2023-08-30T11:12:46;1234.20;;;960.25;;
25231;SDS011;13176;51.140;6.290;2023-08-30T11:15:16;1144.07;;;975.13;;
25231;SDS011;13176;51.140;6.290;2023-08-30T11:17:43;1200.93;;;992.72;;
25231;SDS011;13176;51.140;6.290;2023-08-30T11:20:11;1159.10;;;996.55;;
25231;SDS011;13176;51.140;6.290;2023-08-30T11:22:43;1243.75;;;999.13;;
25231;SDS011;13176;51.140;6.290;2023-08-30T11:25:14;1208.70;;;989.97;;
25231;SDS011;13176;51.140;6.290;2023-08-30T11:27:41;1324.47;;;999.90;;
25231;SDS011;13176;51.140;6.290;2023-08-30T11:30:08;1068.78;;;947.08;;
25231;SDS011;13176;51.140;6.290;2023-08-30T11:32:37;1154.00;;;960.95;;
25231;SDS011;13176;51.140;6.290;2023-08-30T11:35:06;1116.35;;;948.78;;
25231;SDS011;13176;51.140;6.290;2023-08-30T11:37:33;1112.10;;;925.72;;
25231;SDS011;13176;51.140;6.290;2023-08-30T11:40:00;925.95;;;818.97;;
25231;SDS011;13176;51.140;6.290;2023-08-30T11:42:28;1065.40;;;902.35;;
25231;SDS011;13176;51.140;6.290;2023-08-30T11:44:57;917.55;;;808.83;;
25231;SDS011;13176;51.140;6.290;2023-08-30T11:47:24;1015.33;;;882.13;;
25231;SDS011;13176;51.140;6.290;2023-08-30T11:49:52;1076.70;;;862.80;;
25231;SDS011;13176;51.140;6.290;2023-08-30T11:52:19;1108.68;;;894.63;;
25231;SDS011;13176;51.140;6.290;2023-08-30T11:54:47;996.78;;;885.13;;
25231;SDS011;13176;51.140;6.290;2023-08-30T11:57:14;1035.20;;;921.40;;
25231;SDS011;13176;51.140;6.290;2023-08-30T11:59:41;1066.05;;;922.30;;
25231;SDS011;13176;51.140;6.290;2023-08-30T12:02:11;1033.03;;;919.83;;
25231;SDS011;13176;51.140;6.290;2023-08-30T12:04:39;1172.40;;;957.72;;
25231;SDS011;13176;51.140;6.290;2023-08-30T12:07:09;1264.20;;;999.90;;
25231;SDS011;13176;51.140;6.290;2023-08-30T12:09:37;1065.72;;;952.92;;
25231;SDS011;13176;51.140;6.290;2023-08-30T12:12:08;993.38;;;894.50;;
25231;SDS011;13176;51.140;6.290;2023-08-30T12:14:36;1011.72;;;913.15;;
25231;SDS011;13176;51.140;6.290;2023-08-30T12:17:04;916.55;;;823.13;;
25231;SDS011;13176;51.140;6.290;2023-08-30T12:19:31;891.60;;;805.08;;
25231;SDS011;13176;51.140;6.290;2023-08-30T12:22:04;832.67;;;749.22;;
25231;SDS011;13176;51.140;6.290;2023-08-30T12:24:44;840.25;;;749.13;;
25231;SDS011;13176;51.140;6.290;2023-08-30T12:27:12;748.00;;;676.00;;
25231;SDS011;13176;51.140;6.290;2023-08-30T12:29:38;879.60;;;754.95;;
25231;SDS011;13176;51.140;6.290;2023-08-30T12:32:06;894.15;;;764.97;;
25231;SDS011;13176;51.140;6.290;2023-08-30T12:34:34;870.17;;;733.92;;
25231;SDS011;13176;51.140;6.290;2023-08-30T12:37:00;801.47;;;720.95;;
25231;SDS011;13176;51.140;6.290;2023-08-30T12:39:30;867.97;;;769.72;;
25231;SDS011;13176;51.140;6.290;2023-08-30T12:41:57;839.90;;;749.40;;
25231;SDS011;13176;51.140;6.290;2023-08-30T12:44:24;846.40;;;758.00;;
25231;SDS011;13176;51.140;6.290;2023-08-30T12:46:50;834.78;;;747.85;;
25231;SDS011;13176;51.140;6.290;2023-08-30T12:49:17;926.47;;;757.00;;
25231;SDS011;13176;51.140;6.290;2023-08-30T12:51:43;1058.47;;;840.42;;
25231;SDS011;13176;51.140;6.290;2023-08-30T12:54:09;925.25;;;779.17;;
25231;SDS011;13176;51.140;6.290;2023-08-30T12:56:36;833.88;;;750.50;;
25231;SDS011;13176;51.140;6.290;2023-08-30T12:59:02;841.40;;;750.67;;
25231;SDS011;13176;51.140;6.290;2023-08-30T13:01:29;846.88;;;757.03;;
25231;SDS011;13176;51.140;6.290;2023-08-30T13:03:56;851.60;;;756.97;;
25231;SDS011;13176;51.140;6.290;2023-08-30T13:06:22;831.45;;;748.53;;
25231;SDS011;13176;51.140;6.290;2023-08-30T13:08:49;791.05;;;713.95;;
25231;SDS011;13176;51.140;6.290;2023-08-30T13:11:15;824.90;;;745.10;;
25231;SDS011;13176;51.140;6.290;2023-08-30T13:16:48;828.83;;;742.85;;
25231;SDS011;13176;51.140;6.290;2023-08-30T13:19:16;859.30;;;765.30;;
25231;SDS011;13176;51.140;6.290;2023-08-30T13:21:42;859.72;;;768.92;;
25231;SDS011;13176;51.140;6.290;2023-08-30T13:24:09;772.92;;;695.03;;
25231;SDS011;13176;51.140;6.290;2023-08-30T13:26:35;826.83;;;742.38;;
25231;SDS011;13176;51.140;6.290;2023-08-30T13:29:04;790.25;;;711.33;;
25231;SDS011;13176;51.140;6.290;2023-08-30T13:31:30;811.00;;;729.22;;
25231;SDS011;13176;51.140;6.290;2023-08-30T13:33:57;822.10;;;740.15;;
25231;SDS011;13176;51.140;6.290;2023-08-30T13:36:24;874.40;;;783.92;;
25231;SDS011;13176;51.140;6.290;2023-08-30T13:38:50;915.63;;;794.08;;
25231;SDS011;13176;51.140;6.290;2023-08-30T13:41:17;856.90;;;762.83;;
25231;SDS011;13176;51.140;6.290;2023-08-30T13:43:43;884.85;;;751.83;;
25231;SDS011;13176;51.140;6.290;2023-08-30T13:46:10;893.17;;;787.28;;
25231;SDS011;13176;51.140;6.290;2023-08-30T13:48:37;1073.97;;;844.75;;
25231;SDS011;13176;51.140;6.290;2023-08-30T13:51:03;925.60;;;819.92;;
25231;SDS011;13176;51.140;6.290;2023-08-30T13:53:30;880.97;;;788.03;;
25231;SDS011;13176;51.140;6.290;2023-08-30T13:55:56;931.05;;;816.00;;
25231;SDS011;13176;51.140;6.290;2023-08-30T13:58:22;1000.38;;;802.30;;
25231;SDS011;13176;51.140;6.290;2023-08-30T14:00:49;914.05;;;797.88;;
25231;SDS011;13176;51.140;6.290;2023-08-30T14:03:15;1122.55;;;884.95;;
25231;SDS011;13176;51.140;6.290;2023-08-30T14:05:42;1085.18;;;910.25;;
25231;SDS011;13176;51.140;6.290;2023-08-30T14:08:09;1032.22;;;917.50;;